Time;durP1;ratioP1;P1;durP2;ratioP2;P2;SDS_P1;SDS_P2;PMS_P1;PMS_P2;Temp;Humidity;BMP_temperature;BMP_pressure;BME280_temperature;BME280_humidity;BME280_pressure;Samples;Min_cycle;Max_cycle;Signal;HPM_P1;HPM_P2
2022/02/02 00:02:11;;;;;;;;;;;;;;;24.94;25.95;99002.16;5048081;28;663;-77
2022/02/02 00:04:44;;;;;;;;;;;;;;;25.01;26.15;98988.91;5047804;28;820;-77
2022/02/02 00:07:24;;;;;;;;;;;;;;;25.07;25.70;98993.41;5047903;28;1077;-75
2022/02/02 00:09:55;;;;;;;;;;;;;;;25.12;26.28;99012.88;5046238;28;1413;-75
2022/02/02 00:12:35;;;;;;;;;;;;;;;25.09;26.27;99002.28;5046660;28;697;-75
2022/02/02 00:15:27;;;;;;;;;;;;;;;24.93;26.88;99006.84;5048030;28;1070;-76
2022/02/02 00:18:05;;;;;;;;;;;;;;;26.33;25.20;99014.41;5048023;28;1308;-78
2022/02/02 00:20:37;;;;;;;;;;;;;;;25.13;26.57;99024.81;5047522;28;1356;-78
2022/02/02 00:23:12;;;;;;;;;;;;;;;26.02;25.37;99033.66;5047512;28;1918;-77
2022/02/02 00:25:48;;;;;;;;;;;;;;;25.20;26.69;99031.84;5046535;28;911;-77
2022/02/02 00:28:14;;;;;;;;;;;;;;;26.53;24.68;99030.34;5046291;28;1357;-76
2022/02/02 00:30:42;;;;;;;;;;;;;;;22.98;28.51;99021.34;5029820;28;1168;-77
2022/02/02 00:33:18;;;;;;;;;;;;;;;23.50;28.72;99026.72;5046837;28;1267;-77
2022/02/02 00:35:55;;;;;;;;;;;;;;;26.08;25.32;99029.00;5046024;28;887;-75
2022/02/02 00:38:21;;;;;;;;;;;;;;;25.12;26.41;99029.53;5046099;28;1318;-77
2022/02/02 00:40:48;;;;;;;;;;;;;;;26.20;25.44;99037.97;5046275;28;745;-77
2022/02/02 00:43:14;;;;;;;;;;;;;;;26.05;25.39;99033.97;5046043;28;1914;-75
2022/02/02 00:45:45;;;;;;;;;;;;;;;26.07;25.48;99036.50;5047177;28;971;-77
2022/02/02 00:48:13;;;;;;;;;;;;;;;25.97;25.86;99033.63;5047333;28;1077;-77
2022/02/02 00:50:39;;;;;;;;;;;;;;;25.66;26.12;99042.56;5046877;28;974;-78
2022/02/02 00:53:07;;;;;;;;;;;;;;;24.82;26.51;99033.63;5047072;28;911;-76
2022/02/02 00:55:33;;;;;;;;;;;;;;;24.89;26.80;99037.06;5035337;28;734;-78
2022/02/02 00:58:00;;;;;;;;;;;;;;;23.85;27.96;99042.28;5036847;28;1440;-79
2022/02/02 01:00:26;;;;;;;;;;;;;;;25.24;26.56;99043.25;5032742;28;1332;-78
2022/02/02 01:02:54;;;;;;;;;;;;;;;24.80;26.76;99043.31;5033765;28;1902;-76
2022/02/02 01:05:20;;;;;;;;;;;;;;;26.18;25.02;99049.34;5032596;28;745;-77
2022/02/02 01:08:15;;;;;;;;;;;;;;;25.22;25.50;99049.06;5033535;28;1030;-77
2022/02/02 01:10:46;;;;;;;;;;;;;;;25.96;25.53;99051.38;5032311;28;1000;-77
2022/02/02 01:13:40;;;;;;;;;;;;;;;25.90;25.45;99054.13;5033598;28;800;-76
2022/02/02 01:19:01;;;;;;;;;;;;;;;24.76;26.24;99054.13;5033266;28;1317;-77
2022/02/02 01:21:32;;;;;;;;;;;;;;;25.07;25.93;99052.50;5032048;28;1085;-76
2022/02/02 01:29:35;;;;;;;;;;;;;;;25.58;25.04;99061.66;5020261;28;1365;-78
2022/02/02 01:32:01;;;;;;;;;;;;;;;22.67;27.93;99063.06;5032042;28;816;-77
2022/02/02 01:34:29;;;;;;;;;;;;;;;24.96;25.78;99067.41;5031333;28;987;-78
2022/02/02 01:36:55;;;;;;;;;;;;;;;25.93;24.21;99055.53;5032741;28;769;-77
2022/02/02 01:39:25;;;;;;;;;;;;;;;24.58;26.40;99069.09;5032652;28;1270;-75
2022/02/02 01:41:52;;;;;;;;;;;;;;;25.10;25.98;99070.59;5032756;28;987;-76
2022/02/02 01:44:26;;;;;;;;;;;;;;;23.92;27.54;99072.59;5032314;28;1923;-76
2022/02/02 01:46:53;;;;;;;;;;;;;;;23.78;27.10;99063.75;5031385;28;1171;-77
2022/02/02 01:55:04;;;;;;;;;;;;;;;23.39;27.84;99072.78;5032605;28;746;-78
2022/02/02 01:57:58;;;;;;;;;;;;;;;23.79;27.60;99072.91;5031413;28;1102;-78
2022/02/02 02:00:25;;;;;;;;;;;;;;;24.10;27.88;99068.69;5031237;28;1479;-76
2022/02/02 02:02:51;;;;;;;;;;;;;;;25.24;26.45;99057.97;5031237;28;1910;-76
2022/02/02 02:05:18;;;;;;;;;;;;;;;24.22;27.19;99065.84;5031970;28;1113;-76
2022/02/02 02:07:47;;;;;;;;;;;;;;;23.89;27.47;99067.53;5032087;28;765;-75
2022/02/02 02:10:13;;;;;;;;;;;;;;;24.65;26.79;99077.25;5032361;28;1356;-78
2022/02/02 02:12:47;;;;;;;;;;;;;;;24.65;26.91;99080.91;5032537;28;1002;-77
2022/02/02 02:15:16;;;;;;;;;;;;;;;24.03;27.68;99076.38;5031010;28;975;-79
2022/02/02 02:17:42;;;;;;;;;;;;;;;24.69;26.98;99086.75;5032573;28;883;-78
2022/02/02 02:20:10;;;;;;;;;;;;;;;25.58;25.37;99075.56;5031176;28;1398;-78
2022/02/02 02:22:41;;;;;;;;;;;;;;;24.49;26.62;99078.97;5030953;28;1306;-78
2022/02/02 02:25:07;;;;;;;;;;;;;;;24.31;26.64;99085.66;5032018;28;1918;-78
2022/02/02 02:27:34;;;;;;;;;;;;;;;24.61;26.14;99089.94;5014304;28;999;-76
2022/02/02 02:30:07;;;;;;;;;;;;;;;24.96;25.99;99083.19;5032382;28;1390;-78
2022/02/02 02:32:53;;;;;;;;;;;;;;;23.34;27.81;99085.69;5031607;28;880;-78
2022/02/02 02:35:39;;;;;;;;;;;;;;;23.95;27.12;99087.88;5031726;28;668;-78
2022/02/02 02:38:48;;;;;;;;;;;;;;;25.10;25.68;99094.75;5030782;28;873;-77
2022/02/02 02:57:57;;;;;;;;;;;;;;;23.02;28.01;99087.00;5034496;28;1598;-75
2022/02/02 03:00:50;;;;;;;;;;;;;;;24.33;26.65;99097.31;5031644;28;1481;-76
2022/02/02 03:30:56;;;;;;;;;;;;;;;25.02;25.26;99126.56;5031228;28;1117;-76
2022/02/02 03:50:15;;;;;;;;;;;;;;;24.03;26.79;99120.69;5029557;28;1355;-76
2022/02/02 03:55:34;;;;;;;;;;;;;;;24.44;26.99;99135.19;5030682;28;1455;-76
2022/02/02 03:58:16;;;;;;;;;;;;;;;25.70;25.47;99127.03;5031178;28;991;-77
2022/02/02 04:00:58;;;;;;;;;;;;;;;23.30;26.83;99145.41;5030087;28;935;-77
2022/02/02 04:03:40;;;;;;;;;;;;;;;24.62;26.51;99152.63;5031565;28;1918;-76
2022/02/02 04:06:08;;;;;;;;;;;;;;;24.61;26.42;99162.06;5030954;28;1102;-75
2022/02/02 04:08:37;;;;;;;;;;;;;;;24.27;26.89;99167.66;5029851;28;1365;-74
2022/02/02 04:11:11;;;;;;;;;;;;;;;24.81;26.54;99156.81;5031403;28;1066;-75
2022/02/02 04:14:33;;;;;;;;;;;;;;;24.17;27.24;99155.31;5030152;28;1098;-77
2022/02/02 04:52:40;;;;;;;;;;;;;;;25.46;25.47;99186.81;5034601;28;808;-75
2022/02/02 04:55:12;;;;;;;;;;;;;;;23.48;27.46;99185.91;5030979;28;1407;-77
2022/02/02 04:58:04;;;;;;;;;;;;;;;24.39;26.00;99190.56;5033526;28;1324;-78
2022/02/02 05:06:03;;;;;;;;;;;;;;;24.85;24.46;99177.41;5034337;28;1507;-74
2022/02/02 05:08:36;;;;;;;;;;;;;;;26.41;23.39;99183.53;5035225;28;1435;-75
2022/02/02 05:11:22;;;;;;;;;;;;;;;23.79;26.27;99189.25;5033480;28;1589;-77
2022/02/02 05:16:53;;;;;;;;;;;;;;;25.27;24.77;99206.53;5033463;28;1431;-77
2022/02/02 05:19:51;;;;;;;;;;;;;;;25.75;24.53;99204.06;5030355;28;2286;-76
2022/02/02 05:23:12;;;;;;;;;;;;;;;24.89;25.53;99231.31;5032033;28;1495;-74
2022/02/02 05:42:51;;;;;;;;;;;;;;;25.96;22.85;99263.44;5031556;28;1249;-76
2022/02/02 05:50:50;;;;;;;;;;;;;;;24.04;24.64;99264.53;5049913;22;3583;-73
2022/02/02 05:53:17;;;;;;;;;;;;;;;24.85;24.02;99277.31;5051214;28;1038;-75
2022/02/02 05:55:46;;;;;;;;;;;;;;;25.37;23.20;99289.16;5052253;28;1132;-75
2022/02/02 05:58:12;;;;;;;;;;;;;;;24.52;24.29;99278.97;5053166;28;808;-73
2022/02/02 06:00:39;;;;;;;;;;;;;;;24.68;23.98;99284.78;5045333;28;1293;-76
2022/02/02 06:03:08;;;;;;;;;;;;;;;24.59;24.57;99287.13;5033265;28;982;-74
2022/02/02 06:05:35;;;;;;;;;;;;;;;23.77;25.18;99300.31;5033236;28;1926;-74
2022/02/02 06:08:03;;;;;;;;;;;;;;;26.00;22.72;99306.31;5033490;28;963;-74
2022/02/02 06:10:31;;;;;;;;;;;;;;;25.49;23.68;99314.84;5033524;28;1420;-74
2022/02/02 06:13:00;;;;;;;;;;;;;;;26.34;22.44;99308.91;5033420;28;907;-75
2022/02/02 06:15:27;;;;;;;;;;;;;;;25.15;23.83;99305.78;5031917;28;792;-77
2022/02/02 06:17:54;;;;;;;;;;;;;;;24.69;23.72;99303.09;5031753;28;1312;-76
2022/02/02 06:20:20;;;;;;;;;;;;;;;25.38;23.54;99313.06;5032851;28;1316;-75
2022/02/02 06:22:52;;;;;;;;;;;;;;;25.64;23.04;99325.34;5033057;28;745;-76
2022/02/02 06:25:22;;;;;;;;;;;;;;;25.97;23.11;99322.69;5032451;28;1977;-75
2022/02/02 06:27:52;;;;;;;;;;;;;;;24.52;24.53;99319.69;5033182;28;983;-76
2022/02/02 06:30:20;;;;;;;;;;;;;;;24.24;24.80;99325.06;5032703;28;1301;-74
2022/02/02 06:32:48;;;;;;;;;;;;;;;24.56;24.31;99334.78;5032375;28;1085;-76
2022/02/02 06:35:15;;;;;;;;;;;;;;;24.10;25.05;99343.06;5032129;28;799;-75
2022/02/02 06:37:42;;;;;;;;;;;;;;;24.76;24.54;99345.41;5032368;28;983;-74
2022/02/02 06:40:09;;;;;;;;;;;;;;;23.33;25.79;99344.19;5032528;28;1385;-75
2022/02/02 06:42:36;;;;;;;;;;;;;;;24.33;24.55;99344.91;5032621;28;959;-74
2022/02/02 06:45:03;;;;;;;;;;;;;;;24.09;24.42;99351.63;5030533;28;1911;-75
2022/02/02 06:47:31;;;;;;;;;;;;;;;24.40;24.13;99355.84;5046597;28;1495;-72
2022/02/02 06:50:06;;;;;;;;;;;;;;;25.59;23.30;99361.41;5051866;28;1331;-72
2022/02/02 06:52:37;;;;;;;;;;;;;;;24.37;24.67;99396.00;5051618;28;685;-75
2022/02/02 06:55:10;;;;;;;;;;;;;;;25.37;23.67;99378.88;5051916;28;1038;-72
2022/02/02 06:57:49;;;;;;;;;;;;;;;25.95;22.33;99384.09;5051955;28;879;-73
2022/02/02 07:00:26;;;;;;;;;;;;;;;25.73;23.32;99392.41;5051993;28;1357;-74
2022/02/02 07:03:04;;;;;;;;;;;;;;;23.82;25.10;99388.19;5050737;28;1002;-76
2022/02/02 07:05:38;;;;;;;;;;;;;;;23.84;24.25;99391.56;5052094;28;1989;-74
2022/02/02 07:08:18;;;;;;;;;;;;;;;25.28;23.40;99397.03;5051658;28;800;-75
2022/02/02 07:11:02;;;;;;;;;;;;;;;25.15;23.70;99411.25;5051964;28;1405;-74
2022/02/02 07:13:37;;;;;;;;;;;;;;;24.57;24.15;99401.09;5051686;28;986;-75
2022/02/02 07:16:14;;;;;;;;;;;;;;;24.02;24.77;99398.91;5050275;28;801;-75
2022/02/02 07:18:54;;;;;;;;;;;;;;;23.97;24.91;99407.09;5051568;28;998;-76
2022/02/02 07:21:37;;;;;;;;;;;;;;;23.99;25.64;99407.72;5033707;28;1408;-74
2022/02/02 07:24:18;;;;;;;;;;;;;;;25.64;23.56;99417.03;5051153;28;1914;-75
2022/02/02 07:29:36;;;;;;;;;;;;;;;25.82;23.62;99432.56;5050024;28;975;-74
2022/02/02 07:32:10;;;;;;;;;;;;;;;25.11;24.35;99419.25;5051269;28;1400;-74
2022/02/02 07:34:49;;;;;;;;;;;;;;;25.18;24.80;99425.44;5051153;28;975;-74
2022/02/02 07:37:28;;;;;;;;;;;;;;;24.71;24.93;99428.53;5051712;28;809;-72
2022/02/02 07:39:56;;;;;;;;;;;;;;;23.74;26.21;99422.66;5030379;28;1405;-74
2022/02/02 07:42:25;;;;;;;;;;;;;;;24.88;25.08;99432.19;5034978;28;1581;-72
2022/02/02 07:44:53;;;;;;;;;;;;;;;25.22;25.27;99434.97;5033802;28;1981;-74
2022/02/02 07:47:21;;;;;;;;;;;;;;;25.74;23.83;99439.38;5028247;28;1346;-74
2022/02/02 07:49:53;;;;;;;;;;;;;;;25.40;24.46;99438.59;5030307;28;1319;-74
2022/02/02 07:52:21;;;;;;;;;;;;;;;25.06;24.59;99446.91;5031314;28;1074;-74
2022/02/02 07:54:50;;;;;;;;;;;;;;;24.88;25.36;99459.06;5031609;28;1283;-74
2022/02/02 07:57:23;;;;;;;;;;;;;;;24.31;25.96;99473.78;5048274;28;1390;-75
2022/02/02 07:59:54;;;;;;;;;;;;;;;25.45;25.24;99488.66;5030828;28;1236;-75
2022/02/02 08:02:25;;;;;;;;;;;;;;;24.48;25.90;99496.00;5028909;28;1252;-74
2022/02/02 08:04:53;;;;;;;;;;;;;;;24.76;25.46;99492.44;5052219;28;1910;-74
2022/02/02 08:07:25;;;;;;;;;;;;;;;25.16;24.55;99491.50;5055400;28;1149;-74
2022/02/02 08:10:04;;;;;;;;;;;;;;;24.34;26.46;99498.22;5055249;28;1030;-75
2022/02/02 08:12:34;;;;;;;;;;;;;;;24.01;26.20;99508.91;5054916;28;970;-76
2022/02/02 08:15:00;;;;;;;;;;;;;;;24.00;26.46;99507.22;5054704;28;979;-75
2022/02/02 08:17:26;;;;;;;;;;;;;;;24.44;26.09;99512.31;5054888;28;938;-76
2022/02/02 08:19:54;;;;;;;;;;;;;;;24.52;26.42;99513.84;5055022;28;1373;-72
2022/02/02 08:22:20;;;;;;;;;;;;;;;24.77;26.07;99510.75;5054748;28;990;-76
2022/02/02 08:24:47;;;;;;;;;;;;;;;21.72;30.45;99532.50;5054326;28;1985;-75
2022/02/02 08:27:13;;;;;;;;;;;;;;;22.79;29.03;99535.97;5053400;28;935;-75
2022/02/02 08:29:39;;;;;;;;;;;;;;;22.43;28.90;99536.88;5053447;28;990;-74
2022/02/02 08:32:06;;;;;;;;;;;;;;;23.77;27.90;99545.97;5053210;28;1363;-74
2022/02/02 08:34:34;;;;;;;;;;;;;;;24.30;27.05;99538.63;5053303;28;1007;-74
2022/02/02 08:37:02;;;;;;;;;;;;;;;24.73;26.18;99537.31;5054885;28;967;-75
2022/02/02 08:39:46;;;;;;;;;;;;;;;23.36;27.50;99551.38;5054660;28;923;-75
2022/02/02 08:42:15;;;;;;;;;;;;;;;25.62;25.04;99554.50;5053859;28;1472;-74
2022/02/02 08:44:47;;;;;;;;;;;;;;;22.70;28.40;99565.91;5053791;28;1973;-75
2022/02/02 08:47:18;;;;;;;;;;;;;;;22.10;28.77;99572.09;5046936;28;1538;-75
2022/02/02 08:49:50;;;;;;;;;;;;;;;21.92;28.94;99575.66;5034252;28;967;-75
2022/02/02 08:52:18;;;;;;;;;;;;;;;21.95;29.06;99590.94;5032449;28;1438;-73
2022/02/02 08:54:48;;;;;;;;;;;;;;;22.84;27.49;99593.38;5033752;28;994;-76
2022/02/02 08:57:30;;;;;;;;;;;;;;;22.89;27.03;99580.53;5018738;28;978;-75
2022/02/02 08:59:59;;;;;;;;;;;;;;;24.95;25.90;99573.56;5041076;28;1431;-75
2022/02/02 09:02:30;;;;;;;;;;;;;;;25.33;24.97;99590.63;5054172;28;832;-75
2022/02/02 09:07:47;;;;;;;;;;;;;;;26.40;24.11;99586.03;5050452;28;1066;-75
2022/02/02 09:10:18;;;;;;;;;;;;;;;25.61;24.97;99603.66;5052510;28;1325;-74
2022/02/02 09:23:59;;;;;;;;;;;;;;;26.49;24.73;99644.81;5053498;28;868;-75
2022/02/02 09:32:11;;;;;;;;;;;;;;;26.59;24.78;99654.41;5051979;28;1350;-76
2022/02/02 09:34:37;;;;;;;;;;;;;;;26.18;24.63;99669.41;5053031;28;966;-73
2022/02/02 09:37:04;;;;;;;;;;;;;;;26.33;24.76;99660.44;5051930;28;1121;-76
2022/02/02 09:39:37;;;;;;;;;;;;;;;25.73;25.22;99670.28;5053158;28;1002;-74
2022/02/02 09:42:07;;;;;;;;;;;;;;;24.52;25.43;99625.63;5035621;28;1520;-76
2022/02/02 09:44:37;;;;;;;;;;;;;;;23.06;27.47;99666.50;5032124;28;1910;-75
2022/02/02 09:47:09;;;;;;;;;;;;;;;24.71;26.02;99681.00;5031763;28;784;-74
2022/02/02 09:49:43;;;;;;;;;;;;;;;25.37;25.34;99691.81;5033057;28;916;-75
2022/02/02 09:52:13;;;;;;;;;;;;;;;25.53;25.24;99692.97;5032724;28;1372;-74
2022/02/02 09:54:48;;;;;;;;;;;;;;;25.27;24.99;99698.00;5032821;28;808;-75
2022/02/02 10:00:38;;;;;;;;;;;;;;;27.46;22.84;99705.69;5032699;28;1337;-74
2022/02/02 10:03:34;;;;;;;;;;;;;;;26.19;23.78;99701.69;5031523;28;991;-74
2022/02/02 10:06:02;;;;;;;;;;;;;;;26.71;23.46;99722.81;5032446;28;1915;-76
2022/02/02 10:14:16;;;;;;;;;;;;;;;26.38;23.12;99718.09;5032531;28;931;-73
2022/02/02 10:16:44;;;;;;;;;;;;;;;26.52;23.16;99719.44;5032261;28;1027;-74
2022/02/02 10:19:14;;;;;;;;;;;;;;;24.61;24.40;99719.56;5032456;28;974;-76
2022/02/02 10:21:40;;;;;;;;;;;;;;;24.73;24.30;99712.09;5032832;28;1310;-75
2022/02/02 10:24:06;;;;;;;;;;;;;;;23.78;25.45;99723.03;5031035;28;1102;-75
2022/02/02 10:26:43;;;;;;;;;;;;;;;23.66;24.61;99727.69;5038494;28;1977;-74
2022/02/02 10:29:10;;;;;;;;;;;;;;;24.70;23.24;99741.16;5045421;28;958;-74
2022/02/02 10:31:40;;;;;;;;;;;;;;;24.50;23.74;99740.66;5038174;28;1285;-74
2022/02/02 10:34:09;;;;;;;;;;;;;;;24.54;23.88;99739.09;5031831;28;854;-74
2022/02/02 10:36:36;;;;;;;;;;;;;;;25.16;22.90;99751.63;5031934;28;931;-75
2022/02/02 10:39:08;;;;;;;;;;;;;;;26.61;21.90;99744.06;5030409;28;1292;-73
2022/02/02 10:41:44;;;;;;;;;;;;;;;23.47;24.75;99760.97;5042835;28;1488;-74
2022/02/02 10:44:19;;;;;;;;;;;;;;;25.81;22.49;99760.72;5051399;28;994;-72
2022/02/02 10:46:54;;;;;;;;;;;;;;;25.30;22.96;99753.03;5051693;28;1977;-76
2022/02/02 10:49:27;;;;;;;;;;;;;;;22.88;26.01;99777.19;5050402;28;990;-74
2022/02/02 10:52:03;;;;;;;;;;;;;;;25.57;23.05;99774.72;5051598;28;1367;-76
2022/02/02 10:54:35;;;;;;;;;;;;;;;24.52;24.83;99783.72;5051720;28;1152;-76
2022/02/02 10:57:10;;;;;;;;;;;;;;;26.07;22.95;99789.88;5051548;28;982;-75
2022/02/02 11:07:57;;;;;;;;;;;;;;;23.48;25.03;99795.06;4994935;28;1196;-75
2022/02/02 11:10:24;;;;;;;;;;;;;;;26.25;22.22;99805.50;5051710;28;1325;-75
2022/02/02 11:12:54;;;;;;;;;;;;;;;25.43;23.01;99801.09;5050220;28;864;-75
2022/02/02 11:15:25;;;;;;;;;;;;;;;24.97;23.23;99817.53;5051094;28;947;-73
2022/02/02 11:17:55;;;;;;;;;;;;;;;24.74;23.27;99828.38;5051252;28;1010;-75
2022/02/02 11:20:22;;;;;;;;;;;;;;;25.39;22.47;99834.91;5043363;28;2084;-75
2022/02/02 11:22:49;;;;;;;;;;;;;;;25.34;22.82;99842.28;5025668;28;1317;-74
2022/02/02 11:25:34;;;;;;;;;;;;;;;24.83;23.53;99847.47;5030595;28;1983;-75
2022/02/02 11:28:03;;;;;;;;;;;;;;;26.31;22.85;99845.34;5031410;28;998;-74
2022/02/02 11:30:41;;;;;;;;;;;;;;;26.14;22.77;99848.13;5030958;28;1321;-76
2022/02/02 11:33:20;;;;;;;;;;;;;;;25.80;23.00;99842.41;5031278;28;1094;-75
2022/02/02 11:35:49;;;;;;;;;;;;;;;25.92;22.88;99854.31;5029858;28;863;-75
2022/02/02 11:38:20;;;;;;;;;;;;;;;23.97;24.77;99864.31;5031406;28;888;-73
2022/02/02 11:41:05;;;;;;;;;;;;;;;25.95;22.85;99866.88;5031344;28;1423;-74
2022/02/02 11:43:55;;;;;;;;;;;;;;;23.61;26.04;99869.66;5032020;28;1042;-74
2022/02/02 11:46:41;;;;;;;;;;;;;;;23.26;26.14;99888.78;5032447;28;1922;-74
2022/02/02 11:49:13;;;;;;;;;;;;;;;20.70;29.11;99891.88;5037416;28;857;-73
2022/02/02 11:51:40;;;;;;;;;;;;;;;22.76;26.97;99911.78;5051501;23;1976;-73
2022/02/02 11:54:08;;;;;;;;;;;;;;;21.92;28.17;99903.53;5050041;28;738;-73
2022/02/02 11:56:49;;;;;;;;;;;;;;;22.81;26.66;99918.34;5048425;28;963;-75
2022/02/02 11:59:33;;;;;;;;;;;;;;;24.02;24.95;99911.59;5050483;28;1139;-73
2022/02/02 12:02:16;;;;;;;;;;;;;;;22.14;26.24;99910.44;5065647;28;1376;-76
2022/02/02 12:04:55;;;;;;;;;;;;;;;23.45;24.70;99937.59;5090666;28;1026;-73
2022/02/02 12:07:36;;;;;;;;;;;;;;;21.36;27.35;99939.78;5090519;28;1975;-75
2022/02/02 12:10:05;;;;;;;;;;;;;;;21.51;27.27;99947.84;5090449;28;1111;-73
2022/02/02 12:49:22;;;;;;;;;;;;;;;24.01;23.68;100065.09;5048419;28;1153;-73
2022/02/02 12:57:36;;;;;;;;;;;;;;;26.30;20.87;100096.78;5052144;28;978;-76
2022/02/02 13:00:08;;;;;;;;;;;;;;;26.55;20.39;100083.44;5052165;28;924;-75
2022/02/02 13:02:36;;;;;;;;;;;;;;;26.47;20.48;100086.59;5053223;28;1337;-76
2022/02/02 13:05:02;;;;;;;;;;;;;;;23.82;23.73;100100.22;5053070;28;994;-73
2022/02/02 13:07:52;;;;;;;;;;;;;;;24.20;22.84;100102.84;5054073;28;1918;-72
2022/02/02 13:10:22;;;;;;;;;;;;;;;26.61;20.88;100106.63;5049362;28;995;-75
2022/02/02 13:12:52;;;;;;;;;;;;;;;22.70;23.82;100104.34;5053342;28;1306;-75
2022/02/02 13:15:28;;;;;;;;;;;;;;;25.24;22.22;100126.97;5052982;28;892;-72
2022/02/02 13:18:02;;;;;;;;;;;;;;;24.64;22.54;100127.78;5055956;28;999;-73
2022/02/02 13:20:35;;;;;;;;;;;;;;;25.03;22.77;100141.38;5056879;28;1074;-75
2022/02/02 13:23:04;;;;;;;;;;;;;;;24.70;23.15;100139.88;5053009;28;1366;-74
2022/02/02 13:25:33;;;;;;;;;;;;;;;24.13;23.60;100153.91;5052679;28;1906;-75
2022/02/02 13:28:02;;;;;;;;;;;;;;;25.62;21.79;100158.25;5052880;28;994;-74
2022/02/02 13:30:34;;;;;;;;;;;;;;;25.59;22.33;100155.09;5051246;28;1160;-73
2022/02/02 13:33:10;;;;;;;;;;;;;;;26.34;20.74;100156.41;5052885;28;1308;-74
2022/02/02 13:35:43;;;;;;;;;;;;;;;24.43;22.18;100156.78;5052342;28;1021;-76
2022/02/02 13:38:21;;;;;;;;;;;;;;;27.64;20.13;100186.66;5052588;28;975;-74
2022/02/02 13:44:05;;;;;;;;;;;;;;;27.67;19.53;100200.13;5052368;28;1267;-73
2022/02/02 13:46:48;;;;;;;;;;;;;;;26.90;19.93;100218.06;5052220;28;1981;-73
2022/02/02 13:49:41;;;;;;;;;;;;;;;25.93;20.07;100205.44;5051056;28;1010;-75
2022/02/02 13:52:24;;;;;;;;;;;;;;;24.14;21.75;100206.34;5052344;28;1365;-77
2022/02/02 13:55:05;;;;;;;;;;;;;;;26.35;20.14;100231.28;5052128;28;927;-76
2022/02/02 14:00:30;;;;;;;;;;;;;;;22.72;22.61;100241.38;5052114;28;923;-75
2022/02/02 14:11:51;;;;;;;;;;;;;;;23.02;21.90;100265.78;5051993;28;1407;-76
2022/02/02 14:33:45;;;;;;;;;;;;;;;22.40;21.77;100326.09;5009557;28;1106;-74
2022/02/02 14:36:16;;;;;;;;;;;;;;;23.07;21.32;100331.53;5009361;28;1022;-76
2022/02/02 14:38:47;;;;;;;;;;;;;;;23.93;20.10;100337.84;5032135;28;1414;-76
2022/02/02 14:41:20;;;;;;;;;;;;;;;24.06;20.35;100345.22;5056705;28;982;-75
2022/02/02 14:43:54;;;;;;;;;;;;;;;25.19;19.27;100357.28;5057558;28;1579;-75
2022/02/02 14:46:27;;;;;;;;;;;;;;;21.77;21.41;100354.00;5051016;28;1964;-74
2022/02/02 14:48:57;;;;;;;;;;;;;;;24.77;19.36;100364.56;5051295;28;954;-76
2022/02/02 14:51:37;;;;;;;;;;;;;;;23.96;20.35;100384.53;5051447;28;1349;-74
2022/02/02 14:54:11;;;;;;;;;;;;;;;23.61;20.33;100393.19;5051309;28;979;-77
2022/02/02 15:05:21;;;;;;;;;;;;;;;21.34;21.81;100379.91;5050103;28;1048;-76
2022/02/02 15:06:22;;;;;;;;;;;;;;;24.61;19.25;100411.16;5008672;28;1086;-76
2022/02/02 15:28:00;;;;;;;;;;;;;;;22.15;21.30;100453.81;5108693;27;1442;-75
2022/02/02 15:30:31;;;;;;;;;;;;;;;23.53;19.84;100455.22;5108309;28;1173;-75
2022/02/02 15:33:01;;;;;;;;;;;;;;;21.86;21.54;100468.78;5107953;28;1359;-75
2022/02/02 15:35:28;;;;;;;;;;;;;;;21.61;21.59;100465.72;5109706;28;1113;-76
2022/02/02 15:37:58;;;;;;;;;;;;;;;24.16;19.33;100470.34;5107910;28;938;-75
2022/02/02 15:40:28;;;;;;;;;;;;;;;21.78;21.03;100480.00;5108223;28;788;-75
2022/02/02 15:43:07;;;;;;;;;;;;;;;23.58;19.78;100482.25;5106896;28;1305;-75
2022/02/02 15:59:41;;;;;;;;;;;;;;;23.82;19.23;100516.69;5087621;28;998;-75
2022/02/02 16:02:14;;;;;;;;;;;;;;;22.89;20.43;100515.69;5087353;28;1371;-76
2022/02/02 16:04:41;;;;;;;;;;;;;;;23.60;20.03;100521.66;5091027;28;1018;-75
2022/02/02 16:07:10;;;;;;;;;;;;;;;23.64;19.56;100522.94;5094052;28;1920;-74
2022/02/02 16:09:49;;;;;;;;;;;;;;;24.88;18.68;100525.66;5085998;28;809;-74
2022/02/02 16:12:20;;;;;;;;;;;;;;;22.45;20.92;100535.59;5087382;28;1458;-73
2022/02/02 16:14:50;;;;;;;;;;;;;;;23.13;20.55;100537.41;5087100;28;998;-75
2022/02/02 16:17:42;;;;;;;;;;;;;;;24.46;18.98;100546.56;5089065;28;1224;-74
2022/02/02 16:36:32;;;;;;;;;;;;;;;24.24;19.12;100577.41;5113978;27;1041;-73
2022/02/02 16:39:05;;;;;;;;;;;;;;;23.14;20.13;100583.44;5098748;28;1545;-73
2022/02/02 16:44:16;;;;;;;;;;;;;;;24.63;18.97;100594.97;5093088;27;923;-72
2022/02/02 16:46:43;;;;;;;;;;;;;;;24.67;19.13;100603.69;5098261;28;1913;-73
2022/02/02 16:49:10;;;;;;;;;;;;;;;24.65;19.16;100601.16;5081067;28;1328;-72
2022/02/02 16:51:37;;;;;;;;;;;;;;;24.48;19.13;100611.84;5092960;28;1309;-72
2022/02/02 16:54:08;;;;;;;;;;;;;;;25.32;18.64;100610.97;5092277;28;804;-73
2022/02/02 16:56:53;;;;;;;;;;;;;;;25.21;18.26;100624.53;5093623;28;1034;-74
2022/02/02 17:24:30;;;;;;;;;;;;;;;24.22;20.33;100673.81;5099549;27;979;-73
2022/02/02 17:29:56;;;;;;;;;;;;;;;25.22;19.37;100690.06;5133724;27;1290;-71
2022/02/02 17:32:34;;;;;;;;;;;;;;;24.86;19.86;100691.53;5104142;27;2386;-75
2022/02/02 17:35:18;;;;;;;;;;;;;;;24.75;19.93;100683.91;5111247;28;1152;-75
2022/02/02 17:37:52;;;;;;;;;;;;;;;24.86;19.65;100686.00;5111913;28;1194;-75
2022/02/02 17:40:33;;;;;;;;;;;;;;;24.44;20.33;100691.03;5112246;28;926;-73
2022/02/02 17:43:14;;;;;;;;;;;;;;;25.23;19.63;100694.56;5094882;28;1324;-73
2022/02/02 17:45:52;;;;;;;;;;;;;;;25.05;19.80;100700.00;5107416;28;1501;-75
2022/02/02 18:02:55;;;;;;;;;;;;;;;24.08;21.67;100731.19;5031626;28;1468;-77
2022/02/02 18:19:19;;;;;;;;;;;;;;;25.18;20.37;100763.81;4947149;28;1385;-77
2022/02/02 18:21:46;;;;;;;;;;;;;;;25.15;20.94;100772.59;5000257;28;1448;-76
2022/02/02 18:24:17;;;;;;;;;;;;;;;23.22;22.72;100794.53;5021390;28;1349;-76
2022/02/02 18:26:51;;;;;;;;;;;;;;;23.50;22.51;100784.38;5022589;28;1985;-74
2022/02/02 18:29:22;;;;;;;;;;;;;;;24.50;21.52;100780.84;5027765;28;1230;-75
2022/02/02 18:32:00;;;;;;;;;;;;;;;24.15;21.97;100787.50;5019854;28;1841;-76
2022/02/02 18:34:35;;;;;;;;;;;;;;;24.92;20.97;100780.56;5017343;28;1480;-74
2022/02/02 18:37:55;;;;;;;;;;;;;;;24.50;21.54;100790.03;5025133;28;1404;-76
2022/02/02 18:45:42;;;;;;;;;;;;;;;25.78;20.45;100782.09;5031027;28;1635;-75
2022/02/02 18:51:21;;;;;;;;;;;;;;;25.73;20.15;100804.16;5031265;28;1407;-75
2022/02/02 18:53:58;;;;;;;;;;;;;;;25.62;20.09;100802.94;5030788;28;1671;-75
2022/02/02 18:56:39;;;;;;;;;;;;;;;26.08;19.97;100823.19;5028413;28;1413;-76
2022/02/02 18:59:19;;;;;;;;;;;;;;;25.60;20.23;100813.41;5015245;28;1471;-76
2022/02/02 19:01:52;;;;;;;;;;;;;;;26.15;19.78;100820.34;5021571;28;1527;-76
2022/02/02 19:04:40;;;;;;;;;;;;;;;24.97;20.89;100816.84;5009079;28;1518;-75
2022/02/02 19:07:47;;;;;;;;;;;;;;;25.30;20.83;100813.97;5013945;28;1918;-75
2022/02/02 19:38:21;;;;;;;;;;;;;;;24.55;21.18;100837.41;5025400;28;1621;-76
2022/02/02 19:57:25;;;;;;;;;;;;;;;25.38;20.37;100838.75;5013658;28;1050;-77
2022/02/02 20:02:57;;;;;;;;;;;;;;;25.10;20.97;100850.13;5027947;28;1402;-75
2022/02/02 20:05:36;;;;;;;;;;;;;;;24.49;21.59;100851.28;5025476;28;1379;-74
2022/02/02 20:08:17;;;;;;;;;;;;;;;24.87;21.17;100858.97;5026242;28;1922;-75
2022/02/02 20:10:58;;;;;;;;;;;;;;;24.81;20.98;100863.44;5031385;28;1279;-76
2022/02/02 20:13:25;;;;;;;;;;;;;;;24.63;21.34;100877.13;5010028;28;1381;-77
2022/02/02 20:15:51;;;;;;;;;;;;;;;24.96;20.87;100873.44;5018549;28;1490;-76
2022/02/02 20:18:17;;;;;;;;;;;;;;;25.64;20.21;100878.63;5030378;28;1484;-76
2022/02/02 20:20:46;;;;;;;;;;;;;;;25.56;20.70;100878.84;5029235;28;1240;-77
2022/02/02 20:23:13;;;;;;;;;;;;;;;25.26;20.61;100875.75;5023497;28;1519;-76
2022/02/02 20:25:46;;;;;;;;;;;;;;;25.39;20.60;100878.50;5024798;28;1263;-78
2022/02/02 20:28:12;;;;;;;;;;;;;;;24.68;21.32;100885.66;5017065;28;1903;-77
2022/02/02 20:30:39;;;;;;;;;;;;;;;24.27;21.59;100883.94;5026271;28;1433;-78
2022/02/02 20:33:05;;;;;;;;;;;;;;;24.14;21.86;100890.28;5016442;28;1530;-76
2022/02/02 20:35:32;;;;;;;;;;;;;;;24.83;20.83;100883.50;5033569;28;1460;-75
2022/02/02 20:37:59;;;;;;;;;;;;;;;24.54;21.56;100893.94;5027312;28;1188;-76
2022/02/02 20:40:26;;;;;;;;;;;;;;;24.81;21.06;100893.13;5035680;28;1431;-76
2022/02/02 20:43:00;;;;;;;;;;;;;;;24.62;21.27;100892.03;5031742;28;1305;-74